Time;durP1;ratioP1;P1;durP2;ratioP2;P2;SDS_P1;SDS_P2;PMS_P1;PMS_P2;Temp;Humidity;BMP_temperature;BMP_pressure;BME280_temperature;BME280_humidity;BME280_pressure;Samples;Min_cycle;Max_cycle;Signal;HPM_P1;HPM_P2
2022/06/07 00:00:24;;;;;;;1.85;1.35;;;19.50;59.30;;;;;;5053299;28;20167;-68
2022/06/07 00:02:50;;;;;;;1.33;1.25;;;19.50;59.30;;;;;;5054864;28;20226;-69
2022/06/07 00:05:16;;;;;;;2.40;1.80;;;19.50;59.40;;;;;;5055120;28;20179;-70
2022/06/07 00:07:42;;;;;;;1.75;1.50;;;19.50;59.30;;;;;;5054218;28;20193;-69
2022/06/07 00:10:08;;;;;;;1.95;1.60;;;19.40;59.40;;;;;;5055209;28;20537;-68
2022/06/07 00:12:33;;;;;;;1.60;1.50;;;19.50;59.40;;;;;;5054942;28;20207;-68
2022/06/07 00:14:59;;;;;;;1.55;1.45;;;19.40;59.30;;;;;;5053938;28;20186;-68
2022/06/07 00:17:24;;;;;;;1.63;1.52;;;19.40;59.30;;;;;;5055142;28;20171;-67
2022/06/07 00:19:50;;;;;;;1.75;1.40;;;19.40;59.40;;;;;;5054769;28;20527;-68
2022/06/07 00:22:16;;;;;;;1.60;1.50;;;19.40;59.40;;;;;;5054377;28;20189;-67
2022/06/07 00:24:42;;;;;;;1.80;1.70;;;19.40;59.40;;;;;;5054636;28;20186;-68
2022/06/07 00:27:08;;;;;;;1.88;1.77;;;19.40;59.50;;;;;;5054733;28;20175;-68
2022/06/07 00:29:33;;;;;;;1.70;1.42;;;19.40;59.50;;;;;;5053820;28;20650;-69
2022/06/07 00:32:00;;;;;;;1.48;1.38;;;19.40;59.50;;;;;;5053263;28;20541;-69
2022/06/07 00:34:25;;;;;;;2.28;2.08;;;19.40;59.60;;;;;;5053386;28;20522;-69
2022/06/07 00:36:51;;;;;;;2.03;1.77;;;19.40;59.50;;;;;;5052586;28;20182;-68
2022/06/07 00:39:17;;;;;;;2.22;2.03;;;19.40;59.60;;;;;;5054638;28;20610;-68
2022/06/07 00:41:42;;;;;;;2.47;2.28;;;19.40;59.80;;;;;;5054244;28;20175;-67
2022/06/07 00:44:24;;;;;;;2.60;2.40;;;19.40;59.60;;;;;;5053740;28;20179;-68
2022/06/07 00:46:52;;;;;;;2.97;2.53;;;19.40;60.40;;;;;;5052914;28;20183;-68
2022/06/07 00:49:17;;;;;;;2.28;2.10;;;19.40;59.70;;;;;;5052586;28;20175;-68
2022/06/07 00:51:46;;;;;;;2.08;1.88;;;19.40;59.60;;;;;;5052946;28;20610;-69
2022/06/07 00:54:26;;;;;;;2.47;2.20;;;19.40;59.70;;;;;;5054223;28;20210;-68
2022/06/07 00:56:52;;;;;;;1.85;1.75;;;19.40;59.70;;;;;;5053099;28;20179;-68
2022/06/07 00:59:17;;;;;;;2.63;2.42;;;19.40;59.70;;;;;;5054354;28;20182;-68
2022/06/07 01:01:43;;;;;;;2.47;2.28;;;19.40;59.70;;;;;;5053982;28;20202;-68
2022/06/07 01:04:08;;;;;;;2.60;1.92;;;19.40;59.80;;;;;;5053226;28;20269;-68
2022/06/07 01:12:02;;;;;;;3.00;2.80;;;19.40;59.70;;;;;;5052717;28;20230;-67
2022/06/07 01:14:28;;;;;;;5.05;3.58;;;19.40;59.70;;;;;;5053834;28;20179;-66
2022/06/07 01:16:53;;;;;;;3.00;2.78;;;19.40;59.80;;;;;;5053420;28;20222;-67
2022/06/07 01:19:19;;;;;;;3.35;3.05;;;19.30;59.80;;;;;;5053033;28;20210;-67
2022/06/07 01:21:45;;;;;;;4.95;3.05;;;19.30;59.80;;;;;;5053329;28;20194;-67
2022/06/07 01:24:12;;;;;;;3.50;3.15;;;19.30;59.80;;;;;;5053130;28;20175;-67
2022/06/07 01:26:37;;;;;;;3.42;3.10;;;19.30;59.80;;;;;;5053595;28;20186;-66
2022/06/07 01:29:03;;;;;;;3.97;3.08;;;19.30;59.80;;;;;;5053647;28;20262;-68
2022/06/07 01:31:29;;;;;;;4.35;3.17;;;19.30;59.90;;;;;;5052868;28;20259;-68
2022/06/07 01:33:54;;;;;;;4.45;4.00;;;19.30;59.90;;;;;;5053188;28;20277;-68
2022/06/07 01:36:20;;;;;;;4.22;3.15;;;19.30;59.90;;;;;;5053572;28;20618;-68
2022/06/07 01:41:53;;;;;;;4.07;3.72;;;19.30;59.90;;;;;;5052373;28;20693;-67
2022/06/07 01:44:15;;;;;;;3.80;3.50;;;19.30;59.90;;;;;;5053331;28;20217;-68
2022/06/07 01:46:41;;;;;;;3.63;3.33;;;19.40;60.00;;;;;;5052230;28;20171;-68
2022/06/07 01:49:06;;;;;;;3.97;3.67;;;19.30;60.00;;;;;;5053499;28;20167;-68
2022/06/07 01:51:32;;;;;;;2.80;2.60;;;19.30;60.00;;;;;;5053187;28;20575;-68
2022/06/07 01:53:57;;;;;;;3.88;3.58;;;19.30;60.00;;;;;;5052107;28;20253;-68
2022/06/07 01:56:23;;;;;;;3.88;3.50;;;19.30;59.90;;;;;;5053167;28;20213;-68
2022/06/07 01:58:48;;;;;;;5.38;3.92;;;19.30;60.00;;;;;;5053302;28;20186;-67
2022/06/07 02:01:14;;;;;;;3.97;3.05;;;19.30;60.20;;;;;;5052310;28;20171;-68
2022/06/07 02:03:40;;;;;;;3.95;3.58;;;19.30;60.00;;;;;;5052488;28;20306;-68
2022/06/07 02:06:08;;;;;;;3.45;3.20;;;19.30;60.00;;;;;;5053051;28;20196;-68
2022/06/07 02:08:37;;;;;;;4.05;3.05;;;19.30;60.10;;;;;;5052448;28;20182;-67
2022/06/07 02:11:11;;;;;;;4.28;3.00;;;19.30;60.10;;;;;;5052838;28;20572;-67
2022/06/07 02:13:36;;;;;;;3.95;3.13;;;19.30;60.10;;;;;;5051788;28;20281;-67
2022/06/07 02:16:02;;;;;;;3.72;3.25;;;19.20;60.10;;;;;;5052825;28;20199;-67
2022/06/07 02:18:28;;;;;;;4.32;3.38;;;19.20;60.00;;;;;;5053040;28;20535;-67
2022/06/07 02:20:56;;;;;;;4.40;3.42;;;19.20;60.00;;;;;;5051856;28;20764;-68
2022/06/07 02:23:22;;;;;;;3.90;3.33;;;19.30;60.10;;;;;;5052202;28;20240;-67
2022/06/07 02:25:50;;;;;;;4.63;3.70;;;19.30;60.20;;;;;;5052639;28;20179;-67
2022/06/07 02:28:16;;;;;;;6.25;3.80;;;19.20;60.10;;;;;;5051965;28;20179;-67
2022/06/07 02:30:41;;;;;;;4.38;2.90;;;19.20;60.20;;;;;;5051433;28;20177;-69
2022/06/07 02:33:07;;;;;;;5.28;3.60;;;19.30;60.10;;;;;;5052779;28;20579;-69
2022/06/07 02:35:33;;;;;;;4.00;3.60;;;19.20;60.10;;;;;;5050902;28;20175;-68
2022/06/07 02:37:58;;;;;;;4.22;3.30;;;19.20;60.10;;;;;;5052252;28;20171;-68
2022/06/07 02:40:24;;;;;;;3.92;3.50;;;19.20;60.10;;;;;;5052536;28;20163;-67
2022/06/07 02:42:49;;;;;;;3.88;3.45;;;19.30;60.20;;;;;;5051689;28;20174;-68
2022/06/07 02:45:15;;;;;;;4.70;3.28;;;19.20;60.20;;;;;;5052531;28;20175;-68
2022/06/07 02:47:40;;;;;;;5.25;3.90;;;19.20;60.20;;;;;;5052434;28;20520;-68
2022/06/07 02:50:06;;;;;;;4.90;4.40;;;19.20;60.20;;;;;;5051997;28;20179;-68
2022/06/07 02:52:32;;;;;;;6.10;3.72;;;19.20;60.30;;;;;;5052534;28;20655;-68
2022/06/07 02:54:58;;;;;;;5.15;3.90;;;19.20;60.20;;;;;;5052233;28;20202;-68
2022/06/07 02:57:25;;;;;;;4.38;3.78;;;19.20;60.20;;;;;;5051660;28;20650;-68
2022/06/07 02:59:51;;;;;;;5.82;4.57;;;19.20;60.30;;;;;;5052259;28;20179;-68
2022/06/07 03:02:17;;;;;;;5.45;3.92;;;19.20;60.30;;;;;;5052390;28;20221;-68
2022/06/07 03:04:42;;;;;;;4.88;3.80;;;19.20;60.30;;;;;;5051426;28;20164;-67
2022/06/07 03:07:08;;;;;;;4.32;3.53;;;19.20;60.20;;;;;;5052396;28;20218;-68
2022/06/07 03:09:33;;;;;;;3.88;3.33;;;19.20;60.20;;;;;;5052193;28;20617;-67
2022/06/07 03:11:59;;;;;;;5.07;3.72;;;19.20;60.30;;;;;;5051718;28;20252;-67
2022/06/07 03:14:24;;;;;;;4.03;3.72;;;19.20;60.30;;;;;;5052186;28;20264;-67
2022/06/07 03:16:50;;;;;;;7.50;4.55;;;19.20;60.40;;;;;;5051446;28;20168;-66
2022/06/07 03:19:16;;;;;;;5.82;4.00;;;19.20;60.30;;;;;;5052384;28;20186;-67
2022/06/07 03:21:41;;;;;;;5.30;4.25;;;19.20;60.30;;;;;;5052003;28;20180;-67
2022/06/07 03:24:07;;;;;;;3.85;3.42;;;19.20;60.40;;;;;;5051574;28;20175;-67
2022/06/07 03:26:33;;;;;;;4.28;3.88;;;19.10;60.20;;;;;;5052074;28;20172;-68
2022/06/07 03:28:58;;;;;;;4.63;4.22;;;19.20;60.40;;;;;;5052067;28;20555;-68
2022/06/07 03:31:24;;;;;;;5.28;4.18;;;19.20;60.40;;;;;;5051646;28;20213;-69
2022/06/07 03:33:49;;;;;;;5.95;4.47;;;19.20;60.50;;;;;;5051927;28;20218;-68
2022/06/07 03:36:23;;;;;;;5.10;4.60;;;19.10;60.40;;;;;;5055316;28;20167;-68
2022/06/07 03:38:48;;;;;;;4.85;4.43;;;19.10;60.40;;;;;;5054773;28;20183;-68
2022/06/07 03:41:20;;;;;;;5.25;4.78;;;19.10;60.50;;;;;;5055665;28;20168;-68
2022/06/07 03:43:46;;;;;;;4.85;4.35;;;19.10;60.50;;;;;;5055350;28;20206;-68
2022/06/07 03:46:15;;;;;;;5.85;4.88;;;19.10;60.40;;;;;;5054803;28;20265;-68
2022/06/07 03:48:41;;;;;;;5.00;4.60;;;19.10;60.50;;;;;;5055300;28;20198;-68
2022/06/07 03:51:08;;;;;;;6.57;5.03;;;19.10;60.50;;;;;;5055443;28;20647;-69
2022/06/07 03:53:33;;;;;;;5.28;4.70;;;19.10;60.50;;;;;;5055007;28;20210;-68
2022/06/07 03:55:59;;;;;;;4.93;4.55;;;19.10;60.50;;;;;;5055015;28;20182;-68
2022/06/07 03:58:24;;;;;;;4.80;4.40;;;19.10;60.60;;;;;;5055255;28;20238;-68
2022/06/07 04:00:50;;;;;;;4.90;4.38;;;19.10;60.50;;;;;;5054342;28;20309;-68
2022/06/07 04:03:15;;;;;;;6.00;5.22;;;19.10;60.50;;;;;;5055173;28;20710;-68
2022/06/07 04:05:42;;;;;;;6.13;5.05;;;19.10;60.50;;;;;;5054879;28;20661;-68
2022/06/07 04:08:10;;;;;;;4.38;3.88;;;19.10;60.50;;;;;;5054393;28;20179;-68
2022/06/07 04:10:36;;;;;;;5.53;4.90;;;19.10;60.40;;;;;;5055073;28;20177;-67
2022/06/07 04:13:02;;;;;;;5.72;4.85;;;19.10;60.50;;;;;;5054164;28;20576;-67
2022/06/07 04:15:27;;;;;;;4.65;4.25;;;19.10;60.50;;;;;;5055203;28;20179;-67
2022/06/07 04:17:53;;;;;;;5.20;3.92;;;19.10;60.50;;;;;;5054585;28;20651;-67
2022/06/07 04:20:20;;;;;;;4.50;4.10;;;19.10;60.50;;;;;;5054328;28;20622;-67
2022/06/07 04:22:46;;;;;;;5.03;4.47;;;19.10;60.50;;;;;;5054608;28;20183;-66
2022/06/07 04:25:11;;;;;;;4.35;3.80;;;19.10;60.60;;;;;;5054922;28;20167;-67
2022/06/07 04:27:37;;;;;;;4.38;3.85;;;19.10;60.50;;;;;;5054001;28;20224;-68
2022/06/07 04:30:05;;;;;;;5.78;4.88;;;19.10;60.60;;;;;;5055003;28;20163;-68
2022/06/07 04:32:31;;;;;;;6.18;4.38;;;19.10;60.60;;;;;;5054751;28;20199;-69
2022/06/07 04:34:57;;;;;;;5.25;4.75;;;19.10;60.60;;;;;;5054177;28;20179;-69
2022/06/07 04:37:23;;;;;;;6.22;4.55;;;19.10;60.60;;;;;;5054497;28;20587;-68
2022/06/07 04:39:48;;;;;;;5.63;4.85;;;19.00;60.60;;;;;;5054171;28;20187;-68
2022/06/07 04:42:14;;;;;;;4.80;4.40;;;19.10;60.60;;;;;;5054113;28;20194;-67
2022/06/07 04:44:39;;;;;;;5.75;5.05;;;19.10;61.50;;;;;;5054138;28;20602;-68
2022/06/07 04:47:05;;;;;;;5.18;4.68;;;19.10;60.70;;;;;;5053695;28;20254;-68
2022/06/07 04:49:31;;;;;;;6.05;5.35;;;19.10;60.70;;;;;;5053749;28;20334;-68
2022/06/07 04:51:56;;;;;;;6.13;5.53;;;19.10;60.70;;;;;;5054043;28;20536;-68
2022/06/07 04:54:22;;;;;;;5.93;5.40;;;19.10;60.70;;;;;;5054140;28;20689;-68
2022/06/07 04:56:47;;;;;;;5.85;4.70;;;19.10;60.70;;;;;;5053492;28;20207;-68
2022/06/07 04:59:13;;;;;;;5.18;4.57;;;19.10;60.80;;;;;;5054323;28;20171;-68
2022/06/07 05:01:40;;;;;;;6.82;5.20;;;19.10;60.70;;;;;;5053964;28;20171;-68
2022/06/07 05:04:06;;;;;;;6.20;5.60;;;19.10;60.60;;;;;;5052093;28;20570;-68
2022/06/07 05:06:39;;;;;;;6.20;5.10;;;19.10;60.80;;;;;;5053951;28;20634;-67
2022/06/07 05:09:09;;;;;;;6.70;5.20;;;19.10;60.70;;;;;;5054268;28;20190;-68
2022/06/07 05:11:34;;;;;;;6.28;5.57;;;19.10;60.80;;;;;;5054087;28;20187;-67
2022/06/07 05:14:02;;;;;;;6.35;5.70;;;19.10;60.80;;;;;;5053629;28;20214;-67
2022/06/07 05:16:28;;;;;;;6.03;5.43;;;19.10;60.90;;;;;;5053296;28;20175;-67
2022/06/07 05:18:54;;;;;;;6.32;5.72;;;19.10;60.80;;;;;;5053654;28;20765;-66
2022/06/07 05:21:20;;;;;;;5.80;5.18;;;19.10;60.80;;;;;;5053708;28;20175;-67
2022/06/07 05:23:46;;;;;;;6.68;6.05;;;19.10;60.90;;;;;;5052614;28;20214;-67
2022/06/07 05:26:26;;;;;;;6.78;6.07;;;19.10;60.90;;;;;;5053711;28;20183;-66
2022/06/07 05:28:52;;;;;;;7.05;5.47;;;19.10;60.90;;;;;;5052227;28;20240;-68
2022/06/07 05:31:17;;;;;;;7.13;6.50;;;19.10;60.90;;;;;;5052920;28;20167;-68
2022/06/07 05:33:43;;;;;;;6.85;5.10;;;19.10;60.90;;;;;;5052978;28;20203;-69
2022/06/07 05:36:08;;;;;;;5.68;5.15;;;19.10;60.90;;;;;;5053390;28;20175;-68
2022/06/07 05:38:34;;;;;;;6.30;5.78;;;19.10;61.00;;;;;;5052722;28;20274;-68
2022/06/07 05:41:00;;;;;;;5.60;5.20;;;19.00;60.90;;;;;;5053218;28;20182;-68
2022/06/07 05:43:25;;;;;;;6.78;5.63;;;19.10;61.00;;;;;;5053492;28;20225;-68
2022/06/07 05:45:51;;;;;;;6.93;6.15;;;19.10;61.00;;;;;;5052843;28;20171;-68
2022/06/07 05:48:17;;;;;;;6.10;5.32;;;19.10;61.10;;;;;;5053204;28;20182;-69
2022/06/07 05:50:50;;;;;;;6.60;5.88;;;19.10;61.00;;;;;;5053292;28;20261;-68
2022/06/07 05:53:16;;;;;;;5.32;4.82;;;19.00;61.00;;;;;;5052554;28;20214;-68
2022/06/07 05:55:41;;;;;;;6.03;5.10;;;19.10;61.00;;;;;;5052966;28;20525;-68
2022/06/07 05:58:07;;;;;;;7.70;5.53;;;19.00;61.00;;;;;;5052505;28;20265;-68
2022/06/07 06:00:33;;;;;;;5.25;4.78;;;19.10;61.00;;;;;;5052493;28;20179;-68
2022/06/07 06:02:59;;;;;;;6.50;5.60;;;19.10;61.00;;;;;;5052594;28;20310;-68
2022/06/07 06:05:24;;;;;;;6.22;5.60;;;19.10;61.00;;;;;;5052856;28;20703;-69
2022/06/07 06:10:34;;;;;;;7.47;5.75;;;19.10;61.00;;;;;;5053040;28;20173;-67
2022/06/07 06:12:59;;;;;;;5.18;4.68;;;19.10;61.00;;;;;;5052374;28;20207;-67
2022/06/07 06:15:26;;;;;;;6.07;5.47;;;19.10;61.00;;;;;;5052839;28;20186;-67
2022/06/07 06:17:51;;;;;;;5.65;5.10;;;19.10;61.00;;;;;;5052973;28;20183;-67
2022/06/07 06:20:17;;;;;;;7.55;5.63;;;19.10;61.10;;;;;;5052248;28;20173;-67
2022/06/07 06:22:43;;;;;;;5.63;5.13;;;19.00;61.00;;;;;;5052561;28;20175;-66
2022/06/07 06:25:09;;;;;;;6.55;5.90;;;19.10;61.10;;;;;;5052909;28;20191;-68
2022/06/07 06:27:34;;;;;;;6.32;5.68;;;19.10;61.00;;;;;;5051919;28;20806;-68
2022/06/07 06:30:00;;;;;;;6.10;5.63;;;19.10;61.10;;;;;;5052496;28;20186;-68
2022/06/07 06:32:25;;;;;;;6.35;5.75;;;19.10;61.00;;;;;;5052860;28;20186;-68
2022/06/07 06:34:51;;;;;;;6.53;5.88;;;19.10;61.00;;;;;;5051919;28;20677;-68
2022/06/07 06:37:17;;;;;;;5.93;5.43;;;19.10;61.00;;;;;;5052769;28;20171;-68
2022/06/07 06:39:43;;;;;;;5.75;5.25;;;19.10;60.90;;;;;;5052288;28;20183;-68
2022/06/07 06:42:09;;;;;;;6.00;5.43;;;19.10;61.00;;;;;;5051920;28;20656;-67
2022/06/07 06:44:34;;;;;;;9.05;5.85;;;19.10;61.10;;;;;;5052260;28;20179;-69
2022/06/07 06:47:01;;;;;;;5.20;4.75;;;19.10;61.10;;;;;;5052593;28;20221;-69
2022/06/07 06:49:27;;;;;;;5.28;4.72;;;19.10;61.00;;;;;;5052087;28;20177;-71
2022/06/07 06:51:53;;;;;;;5.88;5.38;;;19.20;60.80;;;;;;5052380;28;20183;-71
2022/06/07 06:54:19;;;;;;;7.95;5.32;;;19.20;60.80;;;;;;5052569;28;20215;-66
2022/06/07 06:56:44;;;;;;;7.10;4.47;;;19.20;60.80;;;;;;5051392;28;20212;-68
2022/06/07 06:59:10;;;;;;;7.90;5.28;;;19.20;60.80;;;;;;5052258;28;20225;-68
2022/06/07 07:01:38;;;;;;;6.47;5.88;;;19.20;60.80;;;;;;5051980;28;20178;-68
2022/06/07 07:04:06;;;;;;;5.47;5.00;;;19.20;60.70;;;;;;5051553;28;20313;-70
2022/06/07 07:06:32;;;;;;;6.68;5.03;;;19.30;60.70;;;;;;5052496;28;20190;-67
2022/06/07 07:08:57;;;;;;;6.45;4.97;;;19.30;60.60;;;;;;5051181;28;20202;-68
2022/06/07 07:11:37;;;;;;;6.63;5.25;;;19.40;60.60;;;;;;5055628;28;20175;-66
2022/06/07 07:14:03;;;;;;;7.60;5.57;;;19.30;61.00;;;;;;5055853;28;20650;-66
2022/06/07 07:16:30;;;;;;;7.30;5.95;;;19.30;60.80;;;;;;5055371;28;20175;-67
2022/06/07 07:18:55;;;;;;;8.13;4.88;;;19.30;61.20;;;;;;5055659;28;20672;-66
2022/06/07 07:21:29;;;;;;;7.38;5.80;;;19.20;61.20;;;;;;5056175;28;20175;-67
2022/06/07 07:23:55;;;;;;;7.10;6.43;;;19.20;61.20;;;;;;5054949;28;20193;-67
2022/06/07 07:26:25;;;;;;;6.75;5.25;;;19.20;61.30;;;;;;5055857;28;20172;-67
2022/06/07 07:28:52;;;;;;;6.75;6.10;;;19.20;61.30;;;;;;5055693;28;20175;-67
2022/06/07 07:31:21;;;;;;;7.82;6.28;;;19.20;61.40;;;;;;5055219;28;20203;-68
2022/06/07 07:33:46;;;;;;;7.88;5.80;;;19.10;61.30;;;;;;5055419;28;20238;-69
2022/06/07 07:36:12;;;;;;;6.95;5.88;;;19.10;61.30;;;;;;5055575;28;20202;-68
2022/06/07 07:38:38;;;;;;;6.32;5.68;;;19.20;61.40;;;;;;5054554;28;20183;-67
2022/06/07 07:41:04;;;;;;;8.45;5.88;;;19.10;61.30;;;;;;5055581;28;20179;-68
2022/06/07 07:43:29;;;;;;;6.63;5.70;;;19.20;61.30;;;;;;5055612;28;20656;-68
2022/06/07 07:45:55;;;;;;;6.97;6.35;;;19.20;61.10;;;;;;5054738;28;20576;-68
2022/06/07 07:48:22;;;;;;;7.05;6.28;;;19.20;61.00;;;;;;5055598;28;20171;-69
2022/06/07 07:50:47;;;;;;;10.13;6.60;;;19.20;60.90;;;;;;5055153;28;20233;-68
2022/06/07 07:53:13;;;;;;;7.43;6.50;;;19.20;61.00;;;;;;5054532;28;20214;-69
2022/06/07 07:55:44;;;;;;;6.85;6.00;;;19.20;61.20;;;;;;5054862;28;20182;-68
2022/06/07 07:58:09;;;;;;;7.68;6.57;;;19.20;61.20;;;;;;5054760;28;20187;-68
2022/06/07 08:00:35;;;;;;;6.00;5.50;;;19.20;61.20;;;;;;5054908;28;20175;-68
2022/06/07 08:03:00;;;;;;;8.20;6.68;;;19.20;61.20;;;;;;5055157;28;20314;-68
2022/06/07 08:05:26;;;;;;;7.53;6.78;;;19.20;61.20;;;;;;5054562;28;20179;-68
2022/06/07 08:07:52;;;;;;;6.03;5.47;;;19.20;61.20;;;;;;5054773;28;20516;-68
2022/06/07 08:10:18;;;;;;;6.80;6.20;;;19.20;61.00;;;;;;5055438;28;20186;-68
2022/06/07 08:12:44;;;;;;;5.82;5.15;;;19.30;61.00;;;;;;5053969;28;20571;-67
2022/06/07 08:15:10;;;;;;;5.93;5.35;;;19.20;60.80;;;;;;5055040;28;20175;-67
2022/06/07 08:17:36;;;;;;;6.22;5.63;;;19.20;60.90;;;;;;5054572;28;20175;-67
2022/06/07 08:20:02;;;;;;;6.78;5.85;;;19.20;60.90;;;;;;5054155;28;20186;-67
2022/06/07 08:22:28;;;;;;;5.50;5.00;;;19.20;61.00;;;;;;5053601;28;20178;-67
2022/06/07 08:24:54;;;;;;;6.45;5.85;;;19.20;60.90;;;;;;5054379;28;20691;-67
2022/06/07 08:27:20;;;;;;;7.00;6.00;;;19.20;61.00;;;;;;5054487;28;20183;-67
2022/06/07 08:29:45;;;;;;;5.93;5.43;;;19.20;61.10;;;;;;5054476;28;20708;-68
2022/06/07 08:32:11;;;;;;;5.07;4.68;;;19.20;61.00;;;;;;5054864;28;20175;-68
2022/06/07 08:37:38;;;;;;;7.07;5.57;;;19.20;60.90;;;;;;5054553;28;20523;-67
2022/06/07 08:40:08;;;;;;;6.10;5.50;;;19.20;60.90;;;;;;5054744;28;20182;-67
2022/06/07 08:42:35;;;;;;;5.40;4.95;;;19.30;60.90;;;;;;5054267;28;20182;-67
2022/06/07 08:45:31;;;;;;;5.63;5.03;;;19.30;60.80;;;;;;5053141;28;20183;-68
2022/06/07 08:47:58;;;;;;;5.82;5.32;;;19.30;60.80;;;;;;5045410;28;20183;-68
2022/06/07 08:50:25;;;;;;;5.53;5.03;;;19.30;60.80;;;;;;5054430;28;20179;-68
2022/06/07 08:52:56;;;;;;;5.40;4.90;;;19.20;60.80;;;;;;5053887;28;20203;-68
2022/06/07 08:55:27;;;;;;;5.13;4.72;;;19.30;60.90;;;;;;5053597;28;20240;-68
2022/06/07 08:57:58;;;;;;;5.05;4.65;;;19.30;60.80;;;;;;5053676;28;20213;-67
2022/06/07 09:00:30;;;;;;;5.43;4.60;;;19.40;60.60;;;;;;5054206;28;20205;-66
2022/06/07 09:03:03;;;;;;;5.47;5.07;;;19.40;60.50;;;;;;5053078;28;20365;-67
2022/06/07 09:05:29;;;;;;;5.10;4.63;;;19.40;60.50;;;;;;5054126;28;20175;-67
2022/06/07 09:07:54;;;;;;;4.63;4.22;;;19.40;60.60;;;;;;5052471;28;20229;-67
2022/06/07 09:13:22;;;;;;;4.57;4.18;;;19.40;60.50;;;;;;5053894;28;20241;-66
2022/06/07 09:15:50;;;;;;;4.25;3.95;;;19.40;60.50;;;;;;5052867;28;20172;-67
2022/06/07 09:18:17;;;;;;;4.70;4.30;;;19.40;60.50;;;;;;5053721;28;20182;-66
2022/06/07 09:20:46;;;;;;;4.95;4.55;;;19.40;60.50;;;;;;5053229;28;20171;-66
2022/06/07 09:23:33;;;;;;;5.03;4.28;;;19.40;60.60;;;;;;5053202;28;20258;-66
2022/06/07 09:26:19;;;;;;;5.07;4.57;;;19.40;60.80;;;;;;5052303;28;20183;-67
2022/06/07 09:28:45;;;;;;;4.57;4.22;;;19.40;60.90;;;;;;5053061;28;20175;-67
2022/06/07 09:31:13;;;;;;;4.20;3.85;;;19.30;60.80;;;;;;5053055;28;20190;-67
2022/06/07 09:33:50;;;;;;;4.75;4.45;;;19.40;60.80;;;;;;5052987;28;20211;-68
2022/06/07 09:36:20;;;;;;;5.18;4.13;;;19.30;60.90;;;;;;5053482;28;20167;-66
2022/06/07 09:38:52;;;;;;;5.55;4.80;;;19.30;60.80;;;;;;5051232;28;20627;-66
2022/06/07 09:41:36;;;;;;;5.22;4.53;;;19.30;60.90;;;;;;5053465;28;20183;-65
2022/06/07 09:44:22;;;;;;;5.30;4.90;;;19.40;61.00;;;;;;5051708;28;20194;-66
2022/06/07 09:46:58;;;;;;;4.88;4.30;;;19.30;60.90;;;;;;5052087;28;20179;-66
2022/06/07 09:49:30;;;;;;;4.97;4.50;;;19.30;61.00;;;;;;5053467;28;20194;-66
2022/06/07 09:52:06;;;;;;;4.90;4.50;;;19.30;61.10;;;;;;5052279;28;20520;-66
2022/06/07 09:54:33;;;;;;;8.30;5.82;;;19.30;61.10;;;;;;5051876;28;20294;-67
2022/06/07 09:57:08;;;;;;;8.45;6.95;;;19.30;61.30;;;;;;5051910;28;20229;-68
2022/06/07 09:59:39;;;;;;;6.15;5.55;;;19.30;61.50;;;;;;5051393;28;20179;-67
2022/06/07 10:02:36;;;;;;;9.65;5.88;;;19.30;61.40;;;;;;5053205;28;20178;-67
2022/06/07 10:05:09;;;;;;;7.75;5.35;;;19.40;61.20;;;;;;5051240;28;20189;-67
2022/06/07 10:07:39;;;;;;;5.97;5.03;;;19.40;61.30;;;;;;5051669;28;20175;-68
2022/06/07 10:10:40;;;;;;;5.53;4.97;;;19.40;61.10;;;;;;5051985;28;20178;-66
2022/06/07 10:13:19;;;;;;;6.45;5.25;;;19.50;61.20;;;;;;5030165;28;20211;-66
2022/06/07 10:16:12;;;;;;;6.07;4.68;;;19.60;60.80;;;;;;5033702;28;20190;-66
2022/06/07 10:19:01;;;;;;;7.43;5.15;;;19.60;60.60;;;;;;5051892;28;20175;-66
2022/06/07 10:21:55;;;;;;;6.10;5.50;;;19.70;60.40;;;;;;5051475;28;20175;-67
2022/06/07 10:24:21;;;;;;;6.07;4.72;;;19.70;60.50;;;;;;5051725;28;20205;-67
2022/06/07 10:26:57;;;;;;;5.07;4.57;;;19.70;60.80;;;;;;5051655;28;20197;-67
2022/06/07 10:29:36;;;;;;;4.97;4.47;;;19.60;60.90;;;;;;5052749;28;20191;-67
2022/06/07 10:32:11;;;;;;;5.63;5.10;;;19.60;60.80;;;;;;5051646;28;20229;-68
2022/06/07 10:34:42;;;;;;;4.60;4.20;;;19.70;60.80;;;;;;5050725;28;20218;-71
2022/06/07 10:37:25;;;;;;;6.95;4.18;;;19.70;60.70;;;;;;5051498;28;20685;-68
2022/06/07 10:40:00;;;;;;;5.55;4.55;;;19.70;60.80;;;;;;5051694;28;20186;-68
2022/06/07 10:42:51;;;;;;;5.90;4.30;;;19.70;60.90;;;;;;5052480;28;20179;-68
2022/06/07 10:45:23;;;;;;;4.88;4.28;;;19.70;60.90;;;;;;5053346;28;20183;-68
2022/06/07 10:47:50;;;;;;;5.10;4.20;;;19.70;60.90;;;;;;5054730;28;20178;-68
2022/06/07 10:50:19;;;;;;;6.60;4.00;;;19.70;60.90;;;;;;5056661;28;20222;-67
2022/06/07 10:52:57;;;;;;;5.78;4.20;;;19.70;61.00;;;;;;5054952;28;20203;-69
2022/06/07 10:55:33;;;;;;;8.25;4.40;;;19.80;61.00;;;;;;5054849;28;20186;-67
2022/06/07 10:58:04;;;;;;;4.68;3.97;;;19.90;60.80;;;;;;5055094;28;20249;-66
2022/06/07 11:00:37;;;;;;;4.75;3.70;;;19.90;60.80;;;;;;5056504;28;20653;-67
2022/06/07 11:03:09;;;;;;;5.05;3.92;;;19.90;60.80;;;;;;5054227;28;20273;-68
2022/06/07 11:11:27;;;;;;;6.88;4.65;;;19.90;61.10;;;;;;5055608;28;20541;-65
2022/06/07 11:14:32;;;;;;;7.18;4.85;;;19.90;61.10;;;;;;5054801;28;20211;-66
2022/06/07 11:16:57;;;;;;;7.88;4.90;;;19.90;61.00;;;;;;5051044;28;20194;-66
2022/06/07 11:19:24;;;;;;;9.30;4.50;;;19.90;60.90;;;;;;5056111;28;20168;-66
2022/06/07 11:21:57;;;;;;;5.10;4.60;;;19.90;60.90;;;;;;5054521;28;20208;-66
2022/06/07 11:24:30;;;;;;;7.57;5.32;;;19.90;60.90;;;;;;5055120;28;20582;-68
2022/06/07 11:26:58;;;;;;;5.57;5.00;;;19.90;61.10;;;;;;5054695;28;20182;-74
2022/06/07 11:29:33;;;;;;;8.88;5.10;;;19.90;61.00;;;;;;5055233;28;20561;-75
2022/06/07 11:32:00;;;;;;;5.18;4.68;;;19.90;61.00;;;;;;5055971;28;20179;-74
2022/06/07 11:34:35;;;;;;;6.88;4.53;;;19.90;61.10;;;;;;5054668;28;20214;-75
2022/06/07 11:37:01;;;;;;;8.07;4.65;;;19.90;61.10;;;;;;5055135;28;20647;-72
2022/06/07 11:39:29;;;;;;;5.50;4.50;;;20.00;61.10;;;;;;5055841;28;20187;-68
2022/06/07 11:42:19;;;;;;;7.60;4.90;;;20.00;60.90;;;;;;5055389;28;20171;-67
2022/06/07 11:45:11;;;;;;;9.20;4.65;;;20.00;60.80;;;;;;5054489;28;20255;-67
2022/06/07 11:47:46;;;;;;;8.18;5.38;;;20.00;60.70;;;;;;5054151;28;20208;-69
2022/06/07 11:50:31;;;;;;;5.57;3.97;;;20.20;60.40;;;;;;5055109;28;20174;-69
2022/06/07 11:53:21;;;;;;;5.28;3.95;;;20.30;60.10;;;;;;5053888;28;20218;-69
2022/06/07 11:55:46;;;;;;;9.38;4.25;;;20.30;60.00;;;;;;5053811;28;20250;-69
2022/06/07 11:58:12;;;;;;;5.18;4.07;;;20.30;59.90;;;;;;5053600;28;20266;-67
2022/06/07 12:00:46;;;;;;;7.00;3.90;;;20.30;59.90;;;;;;5055061;28;20259;-67
2022/06/07 12:03:26;;;;;;;4.47;3.80;;;20.40;60.00;;;;;;5053889;28;20219;-67
2022/06/07 12:05:54;;;;;;;4.25;3.92;;;20.40;59.90;;;;;;5053320;28;20233;-68
2022/06/07 12:08:46;;;;;;;6.22;4.10;;;20.40;59.80;;;;;;5054121;28;20189;-68
2022/06/07 12:11:24;;;;;;;4.00;3.63;;;20.50;59.80;;;;;;5053116;28;20784;-67
2022/06/07 12:14:05;;;;;;;7.30;4.25;;;20.40;59.80;;;;;;5053477;28;20286;-68
2022/06/07 12:16:35;;;;;;;5.00;3.97;;;20.40;59.90;;;;;;5054934;28;20634;-68
2022/06/07 12:19:03;;;;;;;4.47;4.03;;;20.40;59.80;;;;;;5054308;28;20253;-67
2022/06/07 12:21:31;;;;;;;4.40;4.00;;;20.40;59.80;;;;;;5055003;28;20190;-67
2022/06/07 12:24:16;;;;;;;5.35;3.90;;;20.50;59.80;;;;;;5053411;28;20171;-68
2022/06/07 12:26:45;;;;;;;4.47;3.80;;;20.50;59.70;;;;;;5053919;28;20317;-67
2022/06/07 12:29:18;;;;;;;5.63;3.40;;;20.50;59.60;;;;;;5053765;28;20176;-69
2022/06/07 12:31:49;;;;;;;4.35;3.60;;;20.60;59.60;;;;;;5054525;28;20241;-68
2022/06/07 12:34:23;;;;;;;5.20;3.80;;;20.60;59.50;;;;;;5053901;28;20215;-68
2022/06/07 12:36:59;;;;;;;4.63;4.00;;;20.70;59.70;;;;;;5054140;28;20657;-67
2022/06/07 12:39:25;;;;;;;4.60;4.07;;;20.70;59.30;;;;;;5053818;28;20580;-67
2022/06/07 12:41:58;;;;;;;3.42;3.15;;;20.60;59.50;;;;;;5053014;28;20171;-67
2022/06/07 12:44:28;;;;;;;4.03;3.58;;;20.60;59.70;;;;;;5054531;28;20636;-68
2022/06/07 12:46:54;;;;;;;5.13;3.90;;;20.60;59.60;;;;;;5053290;28;20634;-69
2022/06/07 12:49:26;;;;;;;3.80;3.50;;;20.70;59.40;;;;;;5054303;28;20194;-70
2022/06/07 12:52:00;;;;;;;3.90;3.60;;;20.80;59.40;;;;;;5054352;28;20254;-68
2022/06/07 12:54:26;;;;;;;4.03;3.67;;;20.70;59.50;;;;;;5053695;28;20253;-68
2022/06/07 12:56:52;;;;;;;4.20;3.83;;;20.60;59.70;;;;;;5054056;28;20626;-67
2022/06/07 12:59:27;;;;;;;3.95;3.65;;;20.50;59.80;;;;;;5054218;28;20183;-67
2022/06/07 13:01:52;;;;;;;3.60;3.30;;;20.50;59.70;;;;;;5052972;28;20174;-66
2022/06/07 13:04:36;;;;;;;4.30;3.90;;;20.50;59.80;;;;;;5053225;28;20252;-68
2022/06/07 13:07:21;;;;;;;4.10;3.70;;;20.50;60.00;;;;;;5052504;28;20660;-67
2022/06/07 13:09:48;;;;;;;4.00;3.70;;;20.50;59.90;;;;;;5053365;28;20186;-68
2022/06/07 13:12:24;;;;;;;4.07;3.65;;;20.50;59.90;;;;;;5052957;28;20211;-68
2022/06/07 13:14:52;;;;;;;3.95;3.65;;;20.50;59.90;;;;;;5051915;28;20224;-67
2022/06/07 13:17:34;;;;;;;4.22;3.92;;;20.60;59.80;;;;;;5052750;28;20175;-68
2022/06/07 13:20:00;;;;;;;3.90;3.60;;;20.60;59.70;;;;;;5053734;28;20638;-68